Aviation Digital Data Service (ADDS)

Output produced by METARs form (0925 UTC 25 November 2017)
found at http://www.aviationweather.gov/adds/metars/
 
KESN 250916Z AUTO 17004KT 4SM BR CLR 02/01 A2991 RMK AO2 T00160006